createdAt,value
2022-12-26T00:00:00.717Z,8.23
2022-12-26T00:03:16.557Z,8.18
2022-12-26T00:06:24.667Z,11.38
2022-12-26T00:09:29.595Z,12.93
2022-12-26T00:12:33.440Z,10.90
2022-12-26T00:15:41.034Z,11.00
2022-12-26T00:18:45.208Z,10.07
2022-12-26T00:21:49.437Z,8.57
2022-12-26T00:24:52.180Z,10.80
2022-12-26T00:27:54.839Z,9.07
2022-12-26T00:30:58.223Z,7.97
2022-12-26T00:34:01.076Z,8.25
2022-12-26T00:37:04.375Z,7.60
2022-12-26T00:40:24.485Z,7.77
2022-12-26T00:43:27.382Z,8.93
2022-12-26T00:46:30.243Z,8.45
2022-12-26T00:50:14.308Z,8.77
2022-12-26T00:52:58.970Z,7.82
2022-12-26T00:56:02.360Z,9.10
2022-12-26T00:59:08.178Z,9.57
2022-12-26T01:02:51.043Z,9.38
2022-12-26T01:05:53.872Z,8.85
2022-12-26T01:08:57.306Z,8.70
2022-12-26T01:12:00.545Z,9.73
2022-12-26T01:15:06.324Z,11.80
2022-12-26T01:18:09.732Z,13.70
2022-12-26T01:21:14.804Z,13.62
2022-12-26T01:24:17.659Z,13.43
2022-12-26T01:27:22.408Z,11.60
2022-12-26T01:30:25.572Z,10.97
2022-12-26T01:33:28.414Z,11.10
2022-12-26T01:36:32.286Z,10.95
2022-12-26T01:39:35.347Z,12.95
2022-12-26T01:42:40.364Z,11.30
2022-12-26T01:45:50.263Z,15.57
2022-12-26T01:48:56.190Z,14.32
2022-12-26T01:52:14.266Z,13.25
2022-12-26T01:55:22.537Z,12.85
2022-12-26T01:58:31.926Z,14.00
2022-12-26T02:01:40.271Z,13.30
2022-12-26T02:05:08.264Z,12.15
2022-12-26T02:08:24.138Z,12.40
2022-12-26T02:11:33.376Z,13.80
2022-12-26T02:14:38.005Z,12.20
2022-12-26T02:17:42.833Z,12.47
2022-12-26T02:21:04.275Z,13.55
2022-12-26T02:24:28.331Z,13.02
2022-12-26T02:27:43.001Z,12.63
2022-12-26T02:31:02.001Z,12.43
2022-12-26T02:34:22.684Z,12.93
2022-12-26T02:37:30.811Z,13.45
2022-12-26T02:40:56.517Z,12.90
2022-12-26T02:44:43.407Z,13.00
2022-12-26T02:48:11.240Z,12.33
2022-12-26T02:51:45.927Z,13.43
2022-12-26T02:55:23.085Z,12.95
2022-12-26T02:59:10.136Z,13.60
2022-12-26T03:02:57.663Z,13.90
2022-12-26T03:06:32.328Z,13.60
2022-12-26T03:09:56.202Z,13.70
2022-12-26T03:13:12.403Z,13.52
2022-12-26T03:16:37.107Z,13.82
2022-12-26T03:19:58.237Z,14.05
2022-12-26T03:23:11.711Z,13.97
2022-12-26T03:26:39.682Z,13.73
2022-12-26T03:30:01.651Z,13.48
2022-12-26T03:33:05.117Z,13.57
2022-12-26T03:36:13.279Z,14.13
2022-12-26T03:39:16.033Z,14.37
2022-12-26T03:43:16.711Z,13.97
2022-12-26T03:46:53.617Z,14.60
2022-12-26T03:50:29.933Z,15.27
2022-12-26T03:54:09.969Z,17.00
2022-12-26T03:57:37.725Z,15.37
2022-12-26T04:01:03.976Z,16.67
2022-12-26T04:04:29.245Z,15.82
2022-12-26T04:07:56.510Z,16.58
2022-12-26T04:11:21.731Z,16.37
2022-12-26T04:14:59.722Z,17.93
2022-12-26T04:18:30.167Z,17.53
2022-12-26T04:22:10.617Z,18.20
2022-12-26T04:25:49.679Z,18.75
2022-12-26T04:29:14.813Z,16.77
2022-12-26T04:32:48.484Z,17.80
2022-12-26T04:36:18.414Z,17.20
2022-12-26T04:39:46.137Z,18.23
2022-12-26T04:43:46.841Z,18.08
2022-12-26T04:46:37.993Z,18.45
2022-12-26T04:50:02.047Z,18.07
2022-12-26T04:53:04.921Z,18.67
2022-12-26T04:56:14.805Z,18.83
2022-12-26T04:59:19.245Z,19.58
2022-12-26T05:02:40.244Z,19.10
2022-12-26T05:06:11.082Z,18.63
2022-12-26T05:09:34.680Z,16.87
2022-12-26T05:12:38.252Z,19.17
2022-12-26T05:16:00.444Z,18.20
2022-12-26T05:19:24.943Z,16.73
2022-12-26T05:22:51.945Z,17.77
2022-12-26T05:26:19.071Z,17.40
2022-12-26T05:29:22.177Z,18.23
2022-12-26T05:32:45.137Z,17.00
2022-12-26T05:35:48.498Z,16.83
2022-12-26T05:38:52.224Z,17.77
2022-12-26T05:41:54.995Z,17.30
2022-12-26T05:44:58.330Z,18.37
2022-12-26T05:48:02.219Z,18.60
2022-12-26T05:51:05.938Z,18.98
2022-12-26T05:54:10.190Z,18.10
2022-12-26T05:57:15.423Z,18.77
2022-12-26T06:00:19.584Z,19.08
2022-12-26T06:03:24.220Z,16.98
2022-12-26T06:06:32.614Z,17.50
2022-12-26T06:09:36.017Z,18.13
2022-12-26T06:12:39.193Z,16.80
2022-12-26T06:15:45.301Z,17.80
2022-12-26T06:18:48.987Z,18.02
2022-12-26T06:21:53.840Z,18.33
2022-12-26T06:24:59.095Z,17.60
2022-12-26T06:28:02.561Z,17.43
2022-12-26T06:31:15.214Z,17.92
2022-12-26T06:34:20.796Z,16.98
2022-12-26T06:37:25.131Z,17.30
2022-12-26T06:40:29.163Z,17.30
2022-12-26T06:43:34.331Z,17.37
2022-12-26T06:46:37.911Z,18.02
2022-12-26T06:49:44.112Z,17.67
2022-12-26T06:52:47.449Z,16.98
2022-12-26T06:55:52.012Z,17.63
2022-12-26T06:58:58.606Z,16.65
2022-12-26T07:02:03.429Z,17.05
2022-12-26T07:05:07.905Z,18.30
2022-12-26T07:08:19.387Z,19.10
2022-12-26T07:11:27.640Z,19.67
2022-12-26T07:14:37.795Z,19.30
2022-12-26T07:17:42.773Z,21.95
2022-12-26T07:20:47.292Z,19.92
2022-12-26T07:23:52.092Z,21.48
2022-12-26T07:26:58.790Z,20.63
2022-12-26T07:30:02.721Z,21.50
2022-12-26T07:33:09.131Z,20.00
2022-12-26T07:36:15.132Z,19.12
2022-12-26T07:39:38.060Z,18.15
2022-12-26T07:42:44.319Z,22.43
2022-12-26T07:45:50.445Z,21.53
2022-12-26T07:48:56.363Z,23.58
2022-12-26T07:52:03.128Z,21.45
2022-12-26T07:55:08.143Z,22.52
2022-12-26T07:58:13.149Z,21.57
2022-12-26T08:01:19.343Z,21.30
2022-12-26T08:04:31.130Z,22.67
2022-12-26T08:07:43.360Z,21.52
2022-12-26T08:10:50.154Z,28.15
2022-12-26T08:13:53.385Z,26.10
2022-12-26T08:16:59.159Z,23.23
2022-12-26T08:20:02.070Z,26.58
2022-12-26T08:23:12.382Z,30.67
2022-12-26T08:26:22.988Z,38.97
2022-12-26T08:29:31.129Z,37.33
2022-12-26T08:32:37.262Z,30.73
2022-12-26T08:35:46.132Z,25.27
2022-12-26T08:39:00.278Z,24.42
2022-12-26T08:42:06.132Z,30.08
2022-12-26T08:45:13.154Z,27.63
2022-12-26T08:48:18.337Z,26.53
2022-12-26T08:51:24.445Z,25.67
2022-12-26T08:54:28.891Z,24.23
2022-12-26T08:57:36.084Z,23.73
2022-12-26T09:00:50.437Z,24.40
2022-12-26T09:04:15.064Z,25.33
2022-12-26T09:07:24.984Z,25.37
2022-12-26T09:10:31.433Z,26.52
2022-12-26T09:13:37.031Z,26.52
2022-12-26T09:16:50.982Z,28.53
2022-12-26T09:20:03.020Z,26.13
2022-12-26T09:23:17.056Z,27.33
2022-12-26T09:26:22.132Z,25.60
2022-12-26T09:29:29.124Z,23.70
2022-12-26T09:32:43.128Z,24.13
2022-12-26T09:35:53.839Z,24.50
2022-12-26T09:39:03.173Z,23.83
2022-12-26T09:42:18.299Z,25.35
2022-12-26T09:45:46.339Z,25.55
2022-12-26T09:49:00.331Z,24.50
2022-12-26T09:52:24.291Z,24.47
2022-12-26T09:55:46.772Z,24.00
2022-12-26T09:59:02.269Z,27.50
2022-12-26T10:02:20.464Z,27.87
2022-12-26T10:05:30.239Z,30.20
2022-12-26T10:08:47.146Z,28.73
2022-12-26T10:12:24.115Z,32.53
2022-12-26T10:15:51.187Z,28.60
2022-12-26T10:19:34.335Z,28.77
2022-12-26T10:22:55.919Z,25.23
2022-12-26T10:26:22.076Z,24.37
2022-12-26T10:29:39.292Z,26.73
2022-12-26T10:32:49.844Z,25.37
2022-12-26T10:35:59.080Z,22.70
2022-12-26T10:39:53.279Z,24.70
2022-12-26T10:43:05.558Z,24.03
2022-12-26T10:46:28.062Z,22.60
2022-12-26T10:49:31.253Z,23.75
2022-12-26T10:52:42.685Z,20.98
2022-12-26T10:55:46.736Z,23.33
2022-12-26T10:59:03.752Z,20.53
2022-12-26T11:02:29.252Z,20.75
2022-12-26T11:06:06.582Z,21.08
2022-12-26T11:09:06.858Z,19.90
2022-12-26T11:12:22.771Z,21.37
2022-12-26T11:15:48.679Z,19.13
2022-12-26T11:18:53.774Z,21.23
2022-12-26T11:22:23.405Z,21.45
2022-12-26T11:25:39.006Z,20.00
2022-12-26T11:28:43.758Z,19.93
2022-12-26T11:32:02.352Z,20.13
2022-12-26T11:35:35.157Z,20.25
2022-12-26T11:39:01.132Z,22.02
2022-12-26T11:42:19.420Z,22.10
2022-12-26T11:45:27.149Z,23.53
2022-12-26T11:48:32.370Z,20.77
2022-12-26T11:51:42.990Z,20.67
2022-12-26T11:54:53.552Z,22.00
2022-12-26T11:58:15.777Z,21.42
2022-12-26T12:01:27.049Z,22.27
2022-12-26T12:04:36.511Z,22.87
2022-12-26T12:08:02.300Z,22.30
2022-12-26T12:11:24.105Z,22.00
2022-12-26T12:14:55.102Z,22.33
2022-12-26T12:18:18.052Z,22.63
2022-12-26T12:21:29.707Z,20.67
2022-12-26T12:24:50.394Z,21.00
2022-12-26T12:28:05.395Z,21.40
2022-12-26T12:31:39.190Z,20.02
2022-12-26T12:35:08.475Z,20.30
2022-12-26T12:38:34.148Z,20.20
2022-12-26T12:42:08.122Z,20.60
2022-12-26T12:45:33.163Z,18.20
2022-12-26T12:49:02.382Z,20.77
2022-12-26T12:52:38.545Z,19.37
2022-12-26T12:56:16.296Z,18.73
2022-12-26T12:59:32.116Z,18.73
2022-12-26T13:02:45.283Z,19.10
2022-12-26T13:06:15.091Z,19.37
2022-12-26T13:09:25.288Z,18.57
2022-12-26T13:12:36.123Z,17.30
2022-12-26T13:15:45.809Z,18.15
2022-12-26T13:18:59.128Z,18.40
2022-12-26T13:22:07.158Z,17.25
2022-12-26T13:25:13.354Z,17.50
2022-12-26T13:28:29.109Z,17.27
2022-12-26T13:31:37.787Z,17.02
2022-12-26T13:34:44.398Z,16.67
2022-12-26T13:38:00.094Z,16.65
2022-12-26T13:41:24.088Z,16.00
2022-12-26T13:44:28.527Z,16.40
2022-12-26T13:47:40.032Z,15.43
2022-12-26T13:50:56.428Z,14.27
2022-12-26T13:54:12.186Z,15.38
2022-12-26T13:57:35.153Z,16.10
2022-12-26T14:00:46.211Z,16.07
2022-12-26T14:04:28.371Z,16.40
2022-12-26T14:07:48.163Z,17.08
2022-12-26T14:11:24.289Z,15.48
2022-12-26T14:14:39.046Z,15.43
2022-12-26T14:17:49.283Z,19.03
2022-12-26T14:21:54.263Z,24.17
2022-12-26T14:25:24.283Z,23.12
2022-12-26T14:29:24.327Z,23.70
2022-12-26T14:33:09.046Z,23.47
2022-12-26T14:36:26.028Z,24.77
2022-12-26T14:40:06.374Z,25.20
2022-12-26T14:43:24.124Z,23.12
2022-12-26T14:46:38.658Z,25.40
2022-12-26T14:49:49.062Z,28.03
2022-12-26T14:52:53.761Z,31.27
2022-12-26T14:56:15.880Z,33.03
2022-12-26T14:59:32.230Z,32.63
2022-12-26T15:02:45.212Z,31.45
2022-12-26T15:06:16.169Z,34.40
2022-12-26T15:09:25.210Z,28.03
2022-12-26T15:12:59.095Z,34.88
2022-12-26T15:16:30.576Z,38.53
2022-12-26T15:19:52.352Z,39.25
2022-12-26T15:23:28.604Z,42.93
2022-12-26T15:26:53.314Z,36.30
2022-12-26T15:30:19.089Z,34.83
2022-12-26T15:33:30.312Z,36.08
2022-12-26T15:37:18.078Z,37.33
2022-12-26T15:40:30.342Z,38.83
2022-12-26T15:43:55.336Z,45.27
2022-12-26T15:47:19.590Z,37.03
2022-12-26T15:51:00.118Z,35.50
2022-12-26T15:54:27.070Z,33.33
2022-12-26T15:58:00.168Z,37.83
2022-12-26T16:01:10.897Z,39.50
2022-12-26T16:04:34.898Z,38.97
2022-12-26T16:07:52.312Z,44.05
2022-12-26T16:11:42.659Z,41.08
2022-12-26T16:14:56.029Z,41.80
2022-12-26T16:18:16.285Z,55.30
2022-12-26T16:21:39.239Z,49.15
2022-12-26T16:24:46.026Z,47.30
2022-12-26T16:27:53.677Z,44.70
2022-12-26T16:31:05.165Z,50.50
2022-12-26T16:34:19.233Z,47.93
2022-12-26T16:37:25.323Z,37.10
2022-12-26T16:40:48.036Z,34.70
2022-12-26T16:43:55.070Z,38.25
2022-12-26T16:47:06.437Z,40.30
2022-12-26T16:50:35.319Z,36.87
2022-12-26T16:53:53.003Z,35.03
2022-12-26T16:57:10.027Z,34.78
2022-12-26T17:00:22.109Z,42.33
2022-12-26T17:03:39.196Z,41.20
2022-12-26T17:07:16.029Z,33.30
2022-12-26T17:10:28.561Z,34.83
2022-12-26T17:13:36.096Z,37.22
2022-12-26T17:16:39.864Z,35.38
2022-12-26T17:19:44.605Z,38.60
2022-12-26T17:22:57.085Z,40.60
2022-12-26T17:26:22.314Z,39.15
2022-12-26T17:29:52.665Z,34.15
2022-12-26T17:33:17.991Z,43.85
2022-12-26T17:40:34.838Z,33.97
2022-12-26T17:43:48.037Z,32.05
2022-12-26T17:46:55.134Z,33.97
2022-12-26T17:50:00.205Z,34.85
2022-12-26T17:53:29.671Z,37.97
2022-12-26T17:56:40.087Z,38.23
2022-12-26T17:59:47.076Z,36.33
2022-12-26T18:02:52.052Z,37.53
2022-12-26T18:06:05.597Z,35.15
2022-12-26T18:09:29.354Z,38.27
2022-12-26T18:12:35.159Z,43.57
2022-12-26T18:15:39.141Z,37.45
2022-12-26T18:18:54.027Z,35.17
2022-12-26T18:22:05.036Z,36.83
2022-12-26T18:25:21.360Z,34.83
2022-12-26T18:28:29.385Z,37.63
2022-12-26T18:31:42.110Z,34.42
2022-12-26T18:34:55.466Z,33.50
2022-12-26T18:38:13.971Z,32.13
2022-12-26T18:41:26.070Z,31.53
2022-12-26T18:44:35.987Z,34.13
2022-12-26T18:47:40.692Z,34.67
2022-12-26T18:50:47.111Z,33.72
2022-12-26T18:53:57.175Z,36.17
2022-12-26T18:57:21.262Z,34.30
2022-12-26T19:00:34.022Z,33.27
2022-12-26T19:03:40.133Z,35.85
2022-12-26T19:06:45.181Z,36.33
2022-12-26T19:10:00.108Z,34.88
2022-12-26T19:13:11.688Z,34.77
2022-12-26T19:16:27.152Z,57.77
2022-12-26T19:19:31.808Z,55.22
2022-12-26T19:22:40.083Z,49.13
2022-12-26T19:26:01.205Z,38.72
2022-12-26T19:29:10.434Z,37.53
2022-12-26T19:32:18.050Z,34.17
2022-12-26T19:35:32.506Z,30.70
2022-12-26T19:38:38.061Z,30.15
2022-12-26T19:41:43.180Z,27.15
2022-12-26T19:45:00.149Z,29.37
2022-12-26T19:48:12.227Z,30.67
2022-12-26T19:51:19.617Z,28.48
2022-12-26T19:54:24.136Z,30.75
2022-12-26T19:57:34.085Z,36.85
2022-12-26T20:00:39.247Z,37.33
2022-12-26T20:03:50.987Z,39.07
2022-12-26T20:07:04.070Z,40.10
2022-12-26T20:10:16.243Z,36.42
2022-12-26T20:13:20.037Z,39.55
2022-12-26T20:19:54.786Z,33.93
2022-12-26T20:22:59.791Z,33.70
2022-12-26T20:26:19.419Z,30.83
2022-12-26T20:29:24.288Z,27.83
2022-12-26T20:32:29.650Z,28.37
2022-12-26T20:35:39.973Z,27.83
2022-12-26T20:38:53.487Z,27.50
2022-12-26T20:42:04.623Z,26.37
2022-12-26T20:45:16.039Z,30.98
2022-12-26T20:48:25.990Z,29.40
2022-12-26T20:51:38.460Z,27.80
2022-12-26T20:54:46.991Z,29.15
2022-12-26T20:57:49.718Z,29.42
2022-12-26T21:01:00.197Z,31.10
2022-12-26T21:04:14.367Z,30.60
2022-12-26T21:07:20.233Z,30.50
2022-12-26T21:10:27.246Z,30.25
2022-12-26T21:13:31.201Z,29.02
2022-12-26T21:17:06.079Z,26.55
2022-12-26T21:20:15.146Z,25.87
2022-12-26T21:23:18.572Z,25.67
2022-12-26T21:26:23.080Z,26.08
2022-12-26T21:29:31.957Z,25.62
2022-12-26T21:32:40.013Z,25.67
2022-12-26T21:35:50.975Z,27.70
2022-12-26T21:39:03.989Z,27.60
2022-12-26T21:42:09.369Z,27.35
2022-12-26T21:45:14.787Z,24.87
2022-12-26T21:48:20.145Z,25.00
2022-12-26T21:51:31.943Z,23.37
2022-12-26T21:54:56.013Z,24.27
2022-12-26T21:58:08.069Z,24.40
2022-12-26T22:01:22.576Z,23.75
2022-12-26T22:04:27.016Z,24.30
2022-12-26T22:07:34.056Z,24.70
2022-12-26T22:10:58.271Z,25.57
2022-12-26T22:14:05.168Z,25.55
2022-12-26T22:17:09.232Z,25.00
2022-12-26T22:20:13.522Z,24.80
2022-12-26T22:23:17.229Z,26.10
2022-12-26T22:26:24.314Z,24.13
2022-12-26T22:29:27.569Z,23.12
2022-12-26T22:32:33.059Z,23.98
2022-12-26T22:35:36.506Z,24.25
2022-12-26T22:38:41.164Z,23.93
2022-12-26T22:41:45.976Z,27.53
2022-12-26T22:44:51.128Z,24.35
2022-12-26T22:47:56.035Z,24.45
2022-12-26T22:51:00.001Z,23.95
2022-12-26T22:54:03.799Z,27.57
2022-12-26T22:57:06.802Z,33.00
2022-12-26T23:00:17.087Z,31.65
2022-12-26T23:03:22.293Z,34.33
2022-12-26T23:06:32.185Z,34.55
2022-12-26T23:09:36.489Z,33.27
2022-12-26T23:12:45.075Z,35.10
2022-12-26T23:16:14.812Z,32.40
2022-12-26T23:19:55.696Z,29.67
2022-12-26T23:23:00.001Z,25.27
2022-12-26T23:26:03.453Z,24.03
2022-12-26T23:29:26.935Z,23.53
2022-12-26T23:32:32.985Z,25.88
2022-12-26T23:35:36.362Z,25.17
2022-12-26T23:38:40.449Z,24.80
2022-12-26T23:41:43.831Z,23.77
2022-12-26T23:44:47.023Z,26.40
2022-12-26T23:47:52.973Z,23.42
2022-12-26T23:51:07.741Z,24.80
2022-12-26T23:54:12.399Z,27.15
2022-12-26T23:57:15.314Z,24.47
